Airport View

Enter AWOS ICAO identifier for current METAR.

ex. KFNL

KLIC 202355Z AUTO 19012G22KT 10SM CLR 28/M02 A2980 RMK AO2 PK WND 19026/2316 SLP016 T02781022 10300 20272 56008

21 Sep 2019 00:42

Frequency: 121.125

Phone: 719-775-0515

Other Area AWOS: KMNH - KFLY - KFTG - KCOS

TAF KCOS 202334Z 2100/2124 20014G24KT P6SM FEW110 FM210200 24012KT P6SM SKC FM210500 33007KT P6SM SKC FM211500 13008KT P6SM SKC FM211900 16012KT P6SM FEW100